Airfield :
LOGIN :

Register | Disclaimer

   EN    FR    IT 

 










Legend :    VFR   Marginal VFR   IFR   Intensive IFR   Very Intensive IFR
Visi :
Ceiling :
>= 8 km
>= 3000ft
5 to 8 km
1000 to 3000 ft
1500m to 5 km
500 to 1000 ft
800 to 1500m
200 to 500 ft
< 800m
< 200 ft
Symbols :   Thunderstorms  Fog  Heavy snow  Heavy precipitations  Wind > 20 kt
SIGMETs :     Misc.  Thunderstorms  Icing  Turbulence  Mountain Waves  Volcanic Ashes






- Airport Elevation : 336 ft
- IATA code : GCI


EGJB - Guernsey

CURRENT METAR :
  • 170920Z 06004KT 9999 -SHRA SCT020 SCT030 08/06 Q1009

EXPIRED METARs :
  • 170850Z 09004KT 9999 FEW018 SCT025 08/07 Q1009
  • 170820Z 07003KT 9999 SCT018 08/06 Q1009
  • 170750Z 09004KT 9999 FEW025 07/05 Q1009
  • 170720Z 03004KT 9999 FEW025 07/04 Q1008
  • 170650Z 02004KT 9999 FEW025 07/04 Q1008

TAF TAF EGJB
Valid from the 17 at 09:00 until the 17 at 18:00 UTC


170801Z 1709/1718 VRB04KT 9999 FEW010 BKN030
PROB30
TEMPO 1709/1718 7000 SHRA BKN010
BECMG 1716/1718 36010KT
ATIS : +44 1481 238 957



MET'MAP, your aeronautical weather chart ! - Copyright ORBIFLY December 2007 - Disclaimer

ORBIFLY MET'MAP TEAM :

Programming & Development : Alexandra Zaïnal
Concept & Development : Baudouin d'Aumeries
Co-Development & Prog : Marc-Olivier Méhu
Technical & hardware support : Manuel Goepfert

Contact : metmap@orbifly.com




SOURCES & CREDITS :

   NOAA